sensor_id;sensor_type;location;lat;lon;timestamp;P1;durP1;ratioP1;P2;durP2;ratioP2
13985;SDS011;7067;51.832;8.296;2023-04-23T00:02:05;35.22;;;31.83;;
13985;SDS011;7067;51.832;8.296;2023-04-23T00:04:32;35.95;;;32.25;;
13985;SDS011;7067;51.832;8.296;2023-04-23T00:07:01;38.53;;;34.42;;
13985;SDS011;7067;51.832;8.296;2023-04-23T00:09:27;39.22;;;35.15;;
13985;SDS011;7067;51.832;8.296;2023-04-23T00:11:55;41.08;;;36.97;;
13985;SDS011;7067;51.832;8.296;2023-04-23T00:14:22;41.35;;;37.05;;
13985;SDS011;7067;51.832;8.296;2023-04-23T00:16:47;44.42;;;39.40;;
13985;SDS011;7067;51.832;8.296;2023-04-23T00:19:13;43.03;;;38.47;;
13985;SDS011;7067;51.832;8.296;2023-04-23T00:21:41;43.22;;;38.58;;
13985;SDS011;7067;51.832;8.296;2023-04-23T00:24:06;42.35;;;37.95;;
13985;SDS011;7067;51.832;8.296;2023-04-23T00:26:32;48.58;;;40.80;;
13985;SDS011;7067;51.832;8.296;2023-04-23T00:28:57;45.55;;;39.53;;
13985;SDS011;7067;51.832;8.296;2023-04-23T00:31:22;46.63;;;39.95;;
13985;SDS011;7067;51.832;8.296;2023-04-23T00:33:48;45.75;;;39.85;;
13985;SDS011;7067;51.832;8.296;2023-04-23T00:36:13;46.25;;;41.15;;
13985;SDS011;7067;51.832;8.296;2023-04-23T00:38:39;51.17;;;42.08;;
13985;SDS011;7067;51.832;8.296;2023-04-23T00:41:04;48.08;;;41.42;;
13985;SDS011;7067;51.832;8.296;2023-04-23T00:43:30;47.05;;;39.97;;
13985;SDS011;7067;51.832;8.296;2023-04-23T00:45:55;48.95;;;41.42;;
13985;SDS011;7067;51.832;8.296;2023-04-23T00:48:21;47.80;;;41.40;;
13985;SDS011;7067;51.832;8.296;2023-04-23T00:50:46;48.63;;;40.72;;
13985;SDS011;7067;51.832;8.296;2023-04-23T00:53:11;47.40;;;39.20;;
13985;SDS011;7067;51.832;8.296;2023-04-23T00:55:37;48.55;;;40.35;;
13985;SDS011;7067;51.832;8.296;2023-04-23T00:58:02;46.80;;;39.33;;
13985;SDS011;7067;51.832;8.296;2023-04-23T01:00:28;47.20;;;39.20;;
13985;SDS011;7067;51.832;8.296;2023-04-23T01:02:53;44.65;;;37.05;;
13985;SDS011;7067;51.832;8.296;2023-04-23T01:05:19;45.80;;;38.65;;
13985;SDS011;7067;51.832;8.296;2023-04-23T01:07:47;44.40;;;38.08;;
13985;SDS011;7067;51.832;8.296;2023-04-23T01:10:12;43.58;;;37.63;;
13985;SDS011;7067;51.832;8.296;2023-04-23T01:12:38;45.63;;;39.10;;
13985;SDS011;7067;51.832;8.296;2023-04-23T01:15:03;46.78;;;39.78;;
13985;SDS011;7067;51.832;8.296;2023-04-23T01:17:30;44.13;;;37.90;;
13985;SDS011;7067;51.832;8.296;2023-04-23T01:19:56;46.92;;;39.50;;
13985;SDS011;7067;51.832;8.296;2023-04-23T01:22:21;48.55;;;39.80;;
13985;SDS011;7067;51.832;8.296;2023-04-23T01:24:47;46.03;;;40.05;;
13985;SDS011;7067;51.832;8.296;2023-04-23T01:27:12;45.47;;;40.45;;
13985;SDS011;7067;51.832;8.296;2023-04-23T01:29:38;49.67;;;42.47;;
13985;SDS011;7067;51.832;8.296;2023-04-23T01:32:04;46.95;;;40.15;;
13985;SDS011;7067;51.832;8.296;2023-04-23T01:34:30;50.03;;;41.65;;
13985;SDS011;7067;51.832;8.296;2023-04-23T01:36:56;48.97;;;41.45;;
13985;SDS011;7067;51.832;8.296;2023-04-23T01:39:21;48.08;;;40.40;;
13985;SDS011;7067;51.832;8.296;2023-04-23T01:41:47;49.20;;;42.53;;
13985;SDS011;7067;51.832;8.296;2023-04-23T01:44:12;54.13;;;44.03;;
13985;SDS011;7067;51.832;8.296;2023-04-23T01:46:38;54.05;;;44.53;;
13985;SDS011;7067;51.832;8.296;2023-04-23T01:49:03;53.13;;;43.92;;
13985;SDS011;7067;51.832;8.296;2023-04-23T01:51:29;55.38;;;45.70;;
13985;SDS011;7067;51.832;8.296;2023-04-23T01:53:54;59.45;;;48.35;;
13985;SDS011;7067;51.832;8.296;2023-04-23T01:56:22;53.92;;;45.13;;
13985;SDS011;7067;51.832;8.296;2023-04-23T01:58:49;53.08;;;45.28;;
13985;SDS011;7067;51.832;8.296;2023-04-23T02:01:15;54.17;;;43.78;;
13985;SDS011;7067;51.832;8.296;2023-04-23T02:03:41;55.67;;;45.08;;
13985;SDS011;7067;51.832;8.296;2023-04-23T02:06:06;52.08;;;43.08;;
13985;SDS011;7067;51.832;8.296;2023-04-23T02:08:32;54.85;;;44.53;;
13985;SDS011;7067;51.832;8.296;2023-04-23T02:10:57;53.97;;;44.03;;
13985;SDS011;7067;51.832;8.296;2023-04-23T02:13:22;54.22;;;45.85;;
13985;SDS011;7067;51.832;8.296;2023-04-23T02:15:48;56.17;;;44.22;;
13985;SDS011;7067;51.832;8.296;2023-04-23T02:18:13;55.35;;;45.28;;
13985;SDS011;7067;51.832;8.296;2023-04-23T02:20:38;54.33;;;44.88;;
13985;SDS011;7067;51.832;8.296;2023-04-23T02:23:04;55.67;;;44.85;;
13985;SDS011;7067;51.832;8.296;2023-04-23T02:25:30;56.78;;;46.38;;
13985;SDS011;7067;51.832;8.296;2023-04-23T02:27:57;55.92;;;45.75;;
13985;SDS011;7067;51.832;8.296;2023-04-23T02:30:23;56.25;;;44.00;;
13985;SDS011;7067;51.832;8.296;2023-04-23T02:32:49;52.97;;;43.70;;
13985;SDS011;7067;51.832;8.296;2023-04-23T02:35:15;56.70;;;44.80;;
13985;SDS011;7067;51.832;8.296;2023-04-23T02:37:40;54.67;;;43.83;;
13985;SDS011;7067;51.832;8.296;2023-04-23T02:40:06;58.20;;;47.55;;
13985;SDS011;7067;51.832;8.296;2023-04-23T02:42:32;55.95;;;44.85;;
13985;SDS011;7067;51.832;8.296;2023-04-23T02:44:57;54.95;;;44.75;;
13985;SDS011;7067;51.832;8.296;2023-04-23T02:47:23;57.33;;;44.00;;
13985;SDS011;7067;51.832;8.296;2023-04-23T02:49:48;57.00;;;44.30;;
13985;SDS011;7067;51.832;8.296;2023-04-23T02:52:13;55.00;;;44.38;;
13985;SDS011;7067;51.832;8.296;2023-04-23T02:54:39;65.63;;;46.95;;
13985;SDS011;7067;51.832;8.296;2023-04-23T02:57:04;65.40;;;48.30;;
13985;SDS011;7067;51.832;8.296;2023-04-23T02:59:30;63.58;;;48.72;;
13985;SDS011;7067;51.832;8.296;2023-04-23T03:01:55;65.55;;;50.72;;
13985;SDS011;7067;51.832;8.296;2023-04-23T03:04:20;65.60;;;47.15;;
13985;SDS011;7067;51.832;8.296;2023-04-23T03:06:46;66.38;;;48.70;;
13985;SDS011;7067;51.832;8.296;2023-04-23T03:09:12;66.97;;;48.78;;
13985;SDS011;7067;51.832;8.296;2023-04-23T03:11:37;66.70;;;50.55;;
13985;SDS011;7067;51.832;8.296;2023-04-23T03:14:02;67.18;;;50.22;;
13985;SDS011;7067;51.832;8.296;2023-04-23T03:16:28;70.63;;;51.58;;
13985;SDS011;7067;51.832;8.296;2023-04-23T03:18:55;74.93;;;54.58;;
13985;SDS011;7067;51.832;8.296;2023-04-23T03:21:20;65.05;;;49.88;;
13985;SDS011;7067;51.832;8.296;2023-04-23T03:23:46;69.43;;;52.80;;
13985;SDS011;7067;51.832;8.296;2023-04-23T03:26:11;68.18;;;50.78;;
13985;SDS011;7067;51.832;8.296;2023-04-23T03:28:36;70.03;;;53.47;;
13985;SDS011;7067;51.832;8.296;2023-04-23T03:31:02;67.78;;;51.70;;
13985;SDS011;7067;51.832;8.296;2023-04-23T03:33:27;69.78;;;54.22;;
13985;SDS011;7067;51.832;8.296;2023-04-23T03:35:52;69.38;;;53.97;;
13985;SDS011;7067;51.832;8.296;2023-04-23T03:38:18;75.05;;;53.72;;
13985;SDS011;7067;51.832;8.296;2023-04-23T03:40:43;77.22;;;54.47;;
13985;SDS011;7067;51.832;8.296;2023-04-23T03:43:09;70.20;;;51.95;;
13985;SDS011;7067;51.832;8.296;2023-04-23T03:45:34;71.70;;;53.65;;
13985;SDS011;7067;51.832;8.296;2023-04-23T03:48:00;72.55;;;52.90;;
13985;SDS011;7067;51.832;8.296;2023-04-23T03:50:25;74.13;;;53.60;;
13985;SDS011;7067;51.832;8.296;2023-04-23T03:52:50;78.30;;;55.33;;
13985;SDS011;7067;51.832;8.296;2023-04-23T03:55:16;73.50;;;54.63;;
13985;SDS011;7067;51.832;8.296;2023-04-23T03:57:41;77.07;;;56.28;;
13985;SDS011;7067;51.832;8.296;2023-04-23T04:00:07;81.00;;;57.05;;
13985;SDS011;7067;51.832;8.296;2023-04-23T04:02:32;74.35;;;54.70;;
13985;SDS011;7067;51.832;8.296;2023-04-23T04:04:58;75.60;;;54.75;;
13985;SDS011;7067;51.832;8.296;2023-04-23T04:07:23;74.40;;;54.22;;
13985;SDS011;7067;51.832;8.296;2023-04-23T04:09:48;77.00;;;56.33;;
13985;SDS011;7067;51.832;8.296;2023-04-23T04:12:14;75.25;;;56.05;;
13985;SDS011;7067;51.832;8.296;2023-04-23T04:14:40;75.13;;;56.38;;
13985;SDS011;7067;51.832;8.296;2023-04-23T04:17:06;79.30;;;59.58;;
13985;SDS011;7067;51.832;8.296;2023-04-23T04:19:32;81.97;;;59.05;;
13985;SDS011;7067;51.832;8.296;2023-04-23T04:21:57;77.35;;;57.28;;
13985;SDS011;7067;51.832;8.296;2023-04-23T04:24:22;84.45;;;57.60;;
13985;SDS011;7067;51.832;8.296;2023-04-23T04:26:49;86.63;;;61.38;;
13985;SDS011;7067;51.832;8.296;2023-04-23T04:29:16;82.97;;;58.75;;
13985;SDS011;7067;51.832;8.296;2023-04-23T04:31:42;85.60;;;61.90;;
13985;SDS011;7067;51.832;8.296;2023-04-23T04:34:07;84.60;;;61.80;;
13985;SDS011;7067;51.832;8.296;2023-04-23T04:36:34;80.45;;;60.15;;
13985;SDS011;7067;51.832;8.296;2023-04-23T04:38:59;80.53;;;61.67;;
13985;SDS011;7067;51.832;8.296;2023-04-23T04:41:25;83.80;;;61.60;;
13985;SDS011;7067;51.832;8.296;2023-04-23T04:43:51;85.70;;;62.10;;
13985;SDS011;7067;51.832;8.296;2023-04-23T04:46:18;82.45;;;62.05;;
13985;SDS011;7067;51.832;8.296;2023-04-23T04:48:44;88.72;;;62.72;;
13985;SDS011;7067;51.832;8.296;2023-04-23T04:51:10;86.00;;;62.15;;
13985;SDS011;7067;51.832;8.296;2023-04-23T04:53:35;87.25;;;63.15;;
13985;SDS011;7067;51.832;8.296;2023-04-23T04:56:00;83.25;;;63.15;;
13985;SDS011;7067;51.832;8.296;2023-04-23T04:58:26;84.22;;;63.38;;
13985;SDS011;7067;51.832;8.296;2023-04-23T05:00:51;87.60;;;62.88;;
13985;SDS011;7067;51.832;8.296;2023-04-23T05:03:17;91.22;;;63.17;;
13985;SDS011;7067;51.832;8.296;2023-04-23T05:05:43;82.35;;;61.83;;
13985;SDS011;7067;51.832;8.296;2023-04-23T05:08:09;88.40;;;62.65;;
13985;SDS011;7067;51.832;8.296;2023-04-23T05:10:35;79.78;;;59.88;;
13985;SDS011;7067;51.832;8.296;2023-04-23T05:13:00;88.32;;;65.03;;
13985;SDS011;7067;51.832;8.296;2023-04-23T05:15:26;83.13;;;61.80;;
13985;SDS011;7067;51.832;8.296;2023-04-23T05:17:52;87.47;;;64.03;;
13985;SDS011;7067;51.832;8.296;2023-04-23T05:20:18;87.72;;;64.82;;
13985;SDS011;7067;51.832;8.296;2023-04-23T05:22:44;85.78;;;62.58;;
13985;SDS011;7067;51.832;8.296;2023-04-23T05:25:09;88.30;;;64.18;;
13985;SDS011;7067;51.832;8.296;2023-04-23T05:27:38;84.95;;;63.58;;
13985;SDS011;7067;51.832;8.296;2023-04-23T05:30:05;81.45;;;62.22;;
13985;SDS011;7067;51.832;8.296;2023-04-23T05:32:32;84.25;;;63.42;;
13985;SDS011;7067;51.832;8.296;2023-04-23T05:34:57;83.90;;;63.15;;
13985;SDS011;7067;51.832;8.296;2023-04-23T05:37:26;88.40;;;65.55;;
13985;SDS011;7067;51.832;8.296;2023-04-23T05:39:52;85.95;;;63.80;;
13985;SDS011;7067;51.832;8.296;2023-04-23T05:42:17;86.90;;;64.85;;
13985;SDS011;7067;51.832;8.296;2023-04-23T05:44:43;84.80;;;62.78;;
13985;SDS011;7067;51.832;8.296;2023-04-23T05:47:09;82.30;;;61.50;;
13985;SDS011;7067;51.832;8.296;2023-04-23T05:49:35;85.15;;;65.65;;
13985;SDS011;7067;51.832;8.296;2023-04-23T05:52:01;86.10;;;64.03;;
13985;SDS011;7067;51.832;8.296;2023-04-23T05:54:29;90.82;;;65.05;;
13985;SDS011;7067;51.832;8.296;2023-04-23T05:56:54;85.88;;;64.72;;
13985;SDS011;7067;51.832;8.296;2023-04-23T05:59:20;89.68;;;65.15;;
13985;SDS011;7067;51.832;8.296;2023-04-23T06:01:46;91.53;;;64.90;;
13985;SDS011;7067;51.832;8.296;2023-04-23T06:04:12;91.97;;;66.20;;
13985;SDS011;7067;51.832;8.296;2023-04-23T06:06:37;91.63;;;68.15;;
13985;SDS011;7067;51.832;8.296;2023-04-23T06:09:03;88.97;;;64.50;;
13985;SDS011;7067;51.832;8.296;2023-04-23T06:11:28;87.10;;;66.47;;
13985;SDS011;7067;51.832;8.296;2023-04-23T06:13:56;85.15;;;62.83;;
13985;SDS011;7067;51.832;8.296;2023-04-23T06:16:21;79.38;;;61.92;;
13985;SDS011;7067;51.832;8.296;2023-04-23T06:18:47;84.53;;;63.75;;
13985;SDS011;7067;51.832;8.296;2023-04-23T06:21:13;79.97;;;60.45;;
13985;SDS011;7067;51.832;8.296;2023-04-23T06:23:39;83.40;;;61.67;;
13985;SDS011;7067;51.832;8.296;2023-04-23T06:26:04;80.18;;;61.50;;
13985;SDS011;7067;51.832;8.296;2023-04-23T06:28:30;76.30;;;56.25;;
13985;SDS011;7067;51.832;8.296;2023-04-23T06:30:55;67.57;;;54.25;;
13985;SDS011;7067;51.832;8.296;2023-04-23T06:33:20;65.57;;;51.97;;
13985;SDS011;7067;51.832;8.296;2023-04-23T06:35:46;67.68;;;52.42;;
13985;SDS011;7067;51.832;8.296;2023-04-23T06:38:11;70.85;;;53.30;;
13985;SDS011;7067;51.832;8.296;2023-04-23T06:40:36;67.53;;;51.97;;
13985;SDS011;7067;51.832;8.296;2023-04-23T06:43:02;64.68;;;50.38;;
13985;SDS011;7067;51.832;8.296;2023-04-23T06:45:31;62.55;;;50.58;;
13985;SDS011;7067;51.832;8.296;2023-04-23T06:47:58;59.67;;;49.28;;
13985;SDS011;7067;51.832;8.296;2023-04-23T06:50:23;56.05;;;45.75;;
13985;SDS011;7067;51.832;8.296;2023-04-23T06:52:48;56.08;;;43.95;;
13985;SDS011;7067;51.832;8.296;2023-04-23T06:55:14;56.30;;;43.78;;
13985;SDS011;7067;51.832;8.296;2023-04-23T06:57:39;52.45;;;43.17;;
13985;SDS011;7067;51.832;8.296;2023-04-23T07:00:05;50.13;;;40.35;;
13985;SDS011;7067;51.832;8.296;2023-04-23T07:02:34;52.15;;;42.35;;
13985;SDS011;7067;51.832;8.296;2023-04-23T07:05:00;59.80;;;44.17;;
13985;SDS011;7067;51.832;8.296;2023-04-23T07:07:26;49.90;;;39.30;;
13985;SDS011;7067;51.832;8.296;2023-04-23T07:09:51;46.47;;;37.65;;
13985;SDS011;7067;51.832;8.296;2023-04-23T07:12:17;46.05;;;37.05;;
13985;SDS011;7067;51.832;8.296;2023-04-23T07:14:42;46.17;;;37.38;;
13985;SDS011;7067;51.832;8.296;2023-04-23T07:17:07;41.97;;;36.28;;
13985;SDS011;7067;51.832;8.296;2023-04-23T07:19:34;43.95;;;37.17;;
13985;SDS011;7067;51.832;8.296;2023-04-23T07:22:00;44.08;;;35.58;;
13985;SDS011;7067;51.832;8.296;2023-04-23T07:24:25;33.53;;;29.92;;
13985;SDS011;7067;51.832;8.296;2023-04-23T07:26:51;34.58;;;30.48;;
13985;SDS011;7067;51.832;8.296;2023-04-23T07:29:17;32.63;;;29.02;;
13985;SDS011;7067;51.832;8.296;2023-04-23T07:31:43;31.55;;;27.92;;
13985;SDS011;7067;51.832;8.296;2023-04-23T07:34:08;31.15;;;27.90;;
13985;SDS011;7067;51.832;8.296;2023-04-23T07:36:34;28.83;;;25.50;;
13985;SDS011;7067;51.832;8.296;2023-04-23T07:39:00;30.45;;;26.25;;
13985;SDS011;7067;51.832;8.296;2023-04-23T07:41:25;29.05;;;26.05;;
13985;SDS011;7067;51.832;8.296;2023-04-23T07:43:50;28.63;;;25.60;;
13985;SDS011;7067;51.832;8.296;2023-04-23T07:46:16;27.98;;;25.17;;
13985;SDS011;7067;51.832;8.296;2023-04-23T07:48:41;23.58;;;21.10;;
13985;SDS011;7067;51.832;8.296;2023-04-23T07:51:07;17.73;;;16.20;;
13985;SDS011;7067;51.832;8.296;2023-04-23T07:53:33;16.52;;;15.02;;
13985;SDS011;7067;51.832;8.296;2023-04-23T07:55:58;13.98;;;12.77;;
13985;SDS011;7067;51.832;8.296;2023-04-23T07:58:24;13.38;;;12.18;;
13985;SDS011;7067;51.832;8.296;2023-04-23T08:00:49;12.57;;;11.57;;
13985;SDS011;7067;51.832;8.296;2023-04-23T08:03:15;12.93;;;11.80;;
13985;SDS011;7067;51.832;8.296;2023-04-23T08:05:40;12.55;;;11.52;;
13985;SDS011;7067;51.832;8.296;2023-04-23T08:08:06;12.77;;;11.68;;
13985;SDS011;7067;51.832;8.296;2023-04-23T08:10:32;12.15;;;11.18;;
13985;SDS011;7067;51.832;8.296;2023-04-23T08:12:58;14.68;;;13.32;;
13985;SDS011;7067;51.832;8.296;2023-04-23T08:15:23;12.05;;;10.93;;
13985;SDS011;7067;51.832;8.296;2023-04-23T08:17:49;12.68;;;11.60;;
13985;SDS011;7067;51.832;8.296;2023-04-23T08:20:14;13.18;;;12.07;;
13985;SDS011;7067;51.832;8.296;2023-04-23T08:22:40;11.73;;;10.80;;
13985;SDS011;7067;51.832;8.296;2023-04-23T08:25:05;10.55;;;9.75;;
13985;SDS011;7067;51.832;8.296;2023-04-23T08:27:30;10.95;;;9.95;;
13985;SDS011;7067;51.832;8.296;2023-04-23T08:29:56;10.13;;;9.43;;
13985;SDS011;7067;51.832;8.296;2023-04-23T08:32:21;10.30;;;9.30;;
13985;SDS011;7067;51.832;8.296;2023-04-23T08:34:46;10.50;;;9.77;;
13985;SDS011;7067;51.832;8.296;2023-04-23T08:37:12;10.18;;;9.40;;
13985;SDS011;7067;51.832;8.296;2023-04-23T08:39:37;9.90;;;9.18;;
13985;SDS011;7067;51.832;8.296;2023-04-23T08:42:47;10.05;;;9.13;;
13985;SDS011;7067;51.832;8.296;2023-04-23T08:44:55;9.75;;;8.85;;
13985;SDS011;7067;51.832;8.296;2023-04-23T08:47:21;9.13;;;8.32;;
13985;SDS011;7067;51.832;8.296;2023-04-23T08:49:48;9.00;;;8.40;;
13985;SDS011;7067;51.832;8.296;2023-04-23T08:52:18;8.35;;;7.75;;
13985;SDS011;7067;51.832;8.296;2023-04-23T08:54:49;9.45;;;8.65;;
13985;SDS011;7067;51.832;8.296;2023-04-23T08:57:17;9.10;;;8.27;;
13985;SDS011;7067;51.832;8.296;2023-04-23T08:59:43;9.00;;;8.23;;
13985;SDS011;7067;51.832;8.296;2023-04-23T09:02:10;8.45;;;7.75;;
13985;SDS011;7067;51.832;8.296;2023-04-23T09:04:35;8.55;;;7.85;;
13985;SDS011;7067;51.832;8.296;2023-04-23T09:07:01;7.47;;;6.97;;
13985;SDS011;7067;51.832;8.296;2023-04-23T09:09:28;8.35;;;7.65;;
13985;SDS011;7067;51.832;8.296;2023-04-23T09:11:56;7.50;;;6.80;;
13985;SDS011;7067;51.832;8.296;2023-04-23T09:14:22;8.30;;;7.65;;
13985;SDS011;7067;51.832;8.296;2023-04-23T09:16:51;9.80;;;7.43;;
13985;SDS011;7067;51.832;8.296;2023-04-23T09:19:17;9.25;;;7.38;;
13985;SDS011;7067;51.832;8.296;2023-04-23T09:21:43;7.43;;;6.72;;
13985;SDS011;7067;51.832;8.296;2023-04-23T09:24:10;9.07;;;7.38;;
13985;SDS011;7067;51.832;8.296;2023-04-23T09:26:36;6.97;;;6.47;;
13985;SDS011;7067;51.832;8.296;2023-04-23T09:29:23;8.43;;;7.65;;
13985;SDS011;7067;51.832;8.296;2023-04-23T09:32:10;7.40;;;6.90;;
13985;SDS011;7067;51.832;8.296;2023-04-23T09:34:35;7.70;;;7.00;;
13985;SDS011;7067;51.832;8.296;2023-04-23T09:37:04;8.10;;;7.45;;
13985;SDS011;7067;51.832;8.296;2023-04-23T09:39:32;7.72;;;6.65;;
13985;SDS011;7067;51.832;8.296;2023-04-23T09:42:02;6.88;;;5.95;;
13985;SDS011;7067;51.832;8.296;2023-04-23T09:44:30;6.40;;;5.53;;
13985;SDS011;7067;51.832;8.296;2023-04-23T09:46:56;7.40;;;5.22;;
13985;SDS011;7067;51.832;8.296;2023-04-23T09:49:30;5.88;;;5.38;;
13985;SDS011;7067;51.832;8.296;2023-04-23T09:51:55;6.00;;;5.50;;
13985;SDS011;7067;51.832;8.296;2023-04-23T09:54:21;7.22;;;6.28;;
13985;SDS011;7067;51.832;8.296;2023-04-23T09:56:50;6.45;;;5.35;;
13985;SDS011;7067;51.832;8.296;2023-04-23T09:59:29;6.47;;;5.70;;
13985;SDS011;7067;51.832;8.296;2023-04-23T10:01:55;6.97;;;6.28;;
13985;SDS011;7067;51.832;8.296;2023-04-23T10:04:24;7.05;;;6.40;;
13985;SDS011;7067;51.832;8.296;2023-04-23T10:06:56;6.70;;;6.10;;
13985;SDS011;7067;51.832;8.296;2023-04-23T10:09:23;7.50;;;6.90;;
13985;SDS011;7067;51.832;8.296;2023-04-23T10:11:53;7.97;;;6.88;;
13985;SDS011;7067;51.832;8.296;2023-04-23T10:14:24;7.35;;;6.53;;
13985;SDS011;7067;51.832;8.296;2023-04-23T10:17:00;7.13;;;6.30;;
13985;SDS011;7067;51.832;8.296;2023-04-23T10:19:27;6.57;;;5.95;;
13985;SDS011;7067;51.832;8.296;2023-04-23T10:21:54;8.13;;;4.75;;
13985;SDS011;7067;51.832;8.296;2023-04-23T10:24:22;5.80;;;5.20;;
13985;SDS011;7067;51.832;8.296;2023-04-23T10:26:49;8.05;;;6.68;;
13985;SDS011;7067;51.832;8.296;2023-04-23T10:29:15;6.43;;;5.82;;
13985;SDS011;7067;51.832;8.296;2023-04-23T10:31:42;7.32;;;6.53;;
13985;SDS011;7067;51.832;8.296;2023-04-23T10:34:10;7.18;;;6.43;;
13985;SDS011;7067;51.832;8.296;2023-04-23T10:36:36;6.40;;;5.90;;
13985;SDS011;7067;51.832;8.296;2023-04-23T10:39:02;6.32;;;5.32;;
13985;SDS011;7067;51.832;8.296;2023-04-23T10:41:36;7.40;;;6.65;;
13985;SDS011;7067;51.832;8.296;2023-04-23T10:44:03;5.72;;;5.25;;
13985;SDS011;7067;51.832;8.296;2023-04-23T10:46:30;6.30;;;5.70;;
13985;SDS011;7067;51.832;8.296;2023-04-23T10:49:12;5.18;;;4.72;;
13985;SDS011;7067;51.832;8.296;2023-04-23T10:51:39;4.25;;;3.80;;
13985;SDS011;7067;51.832;8.296;2023-04-23T10:54:06;4.75;;;4.28;;
13985;SDS011;7067;51.832;8.296;2023-04-23T10:56:33;5.72;;;4.60;;
13985;SDS011;7067;51.832;8.296;2023-04-23T10:58:59;5.53;;;5.13;;
13985;SDS011;7067;51.832;8.296;2023-04-23T11:01:24;4.85;;;4.47;;
13985;SDS011;7067;51.832;8.296;2023-04-23T11:03:52;4.68;;;4.28;;
13985;SDS011;7067;51.832;8.296;2023-04-23T11:06:18;5.35;;;4.85;;
13985;SDS011;7067;51.832;8.296;2023-04-23T11:12:12;5.78;;;5.28;;
13985;SDS011;7067;51.832;8.296;2023-04-23T11:14:51;7.65;;;6.95;;
13985;SDS011;7067;51.832;8.296;2023-04-23T11:17:22;5.32;;;4.82;;
13985;SDS011;7067;51.832;8.296;2023-04-23T11:22:49;5.65;;;4.07;;
13985;SDS011;7067;51.832;8.296;2023-04-23T11:25:25;4.70;;;3.85;;
13985;SDS011;7067;51.832;8.296;2023-04-23T11:27:52;4.95;;;4.07;;
13985;SDS011;7067;51.832;8.296;2023-04-23T11:30:19;4.22;;;3.83;;
13985;SDS011;7067;51.832;8.296;2023-04-23T11:32:46;6.10;;;4.53;;
13985;SDS011;7067;51.832;8.296;2023-04-23T11:35:16;6.50;;;4.38;;
13985;SDS011;7067;51.832;8.296;2023-04-23T11:37:42;9.30;;;3.97;;
13985;SDS011;7067;51.832;8.296;2023-04-23T11:40:09;5.13;;;3.67;;
13985;SDS011;7067;51.832;8.296;2023-04-23T11:42:48;6.95;;;3.70;;
13985;SDS011;7067;51.832;8.296;2023-04-23T11:45:27;5.30;;;4.00;;
13985;SDS011;7067;51.832;8.296;2023-04-23T11:47:54;4.38;;;4.00;;
13985;SDS011;7067;51.832;8.296;2023-04-23T11:50:21;5.05;;;3.90;;
13985;SDS011;7067;51.832;8.296;2023-04-23T11:52:47;4.07;;;3.00;;
13985;SDS011;7067;51.832;8.296;2023-04-23T11:55:13;9.90;;;3.08;;
13985;SDS011;7067;51.832;8.296;2023-04-23T11:57:42;7.05;;;2.65;;
13985;SDS011;7067;51.832;8.296;2023-04-23T12:05:18;4.18;;;2.88;;
13985;SDS011;7067;51.832;8.296;2023-04-23T12:07:48;3.63;;;2.88;;
13985;SDS011;7067;51.832;8.296;2023-04-23T12:10:16;2.47;;;2.28;;
13985;SDS011;7067;51.832;8.296;2023-04-23T12:12:43;4.20;;;2.28;;
13985;SDS011;7067;51.832;8.296;2023-04-23T12:15:08;5.40;;;2.10;;
13985;SDS011;7067;51.832;8.296;2023-04-23T12:17:34;2.78;;;2.10;;
13985;SDS011;7067;51.832;8.296;2023-04-23T12:20:02;3.20;;;2.10;;
13985;SDS011;7067;51.832;8.296;2023-04-23T12:22:28;2.47;;;2.20;;
13985;SDS011;7067;51.832;8.296;2023-04-23T12:24:53;3.30;;;1.83;;
13985;SDS011;7067;51.832;8.296;2023-04-23T12:27:19;3.90;;;2.03;;
13985;SDS011;7067;51.832;8.296;2023-04-23T12:29:46;4.53;;;1.65;;
13985;SDS011;7067;51.832;8.296;2023-04-23T12:32:17;2.65;;;1.23;;
13985;SDS011;7067;51.832;8.296;2023-04-23T12:34:52;2.70;;;1.20;;
13985;SDS011;7067;51.832;8.296;2023-04-23T12:37:22;4.18;;;1.38;;
13985;SDS011;7067;51.832;8.296;2023-04-23T12:39:52;4.10;;;1.30;;
13985;SDS011;7067;51.832;8.296;2023-04-23T12:42:20;2.28;;;0.90;;
13985;SDS011;7067;51.832;8.296;2023-04-23T12:44:45;1.20;;;0.80;;
13985;SDS011;7067;51.832;8.296;2023-04-23T12:47:11;2.28;;;1.27;;
13985;SDS011;7067;51.832;8.296;2023-04-23T12:49:39;1.25;;;0.95;;
13985;SDS011;7067;51.832;8.296;2023-04-23T12:52:05;2.92;;;1.27;;
13985;SDS011;7067;51.832;8.296;2023-04-23T12:54:31;1.00;;;0.73;;
13985;SDS011;7067;51.832;8.296;2023-04-23T12:56:58;4.68;;;1.30;;
13985;SDS011;7067;51.832;8.296;2023-04-23T12:59:26;2.85;;;1.02;;
13985;SDS011;7067;51.832;8.296;2023-04-23T13:01:51;4.18;;;0.88;;
13985;SDS011;7067;51.832;8.296;2023-04-23T13:04:16;1.90;;;1.25;;
13985;SDS011;7067;51.832;8.296;2023-04-23T13:06:42;2.05;;;1.00;;
13985;SDS011;7067;51.832;8.296;2023-04-23T13:09:08;1.90;;;0.80;;
13985;SDS011;7067;51.832;8.296;2023-04-23T13:11:34;1.25;;;0.95;;
13985;SDS011;7067;51.832;8.296;2023-04-23T13:14:03;1.52;;;0.90;;
13985;SDS011;7067;51.832;8.296;2023-04-23T13:16:29;1.58;;;0.90;;
13985;SDS011;7067;51.832;8.296;2023-04-23T13:18:54;1.65;;;0.90;;
13985;SDS011;7067;51.832;8.296;2023-04-23T13:21:20;3.28;;;1.02;;
13985;SDS011;7067;51.832;8.296;2023-04-23T13:23:45;0.85;;;0.50;;
13985;SDS011;7067;51.832;8.296;2023-04-23T13:26:10;1.27;;;0.82;;
13985;SDS011;7067;51.832;8.296;2023-04-23T13:28:36;1.00;;;0.70;;
13985;SDS011;7067;51.832;8.296;2023-04-23T13:31:02;1.27;;;0.73;;
13985;SDS011;7067;51.832;8.296;2023-04-23T13:33:28;3.78;;;1.08;;
13985;SDS011;7067;51.832;8.296;2023-04-23T13:35:54;2.00;;;0.75;;
13985;SDS011;7067;51.832;8.296;2023-04-23T13:38:21;1.95;;;0.90;;
13985;SDS011;7067;51.832;8.296;2023-04-23T13:40:47;1.92;;;0.90;;
13985;SDS011;7067;51.832;8.296;2023-04-23T13:43:12;1.10;;;0.95;;
13985;SDS011;7067;51.832;8.296;2023-04-23T13:45:37;3.15;;;1.13;;
13985;SDS011;7067;51.832;8.296;2023-04-23T13:48:03;2.80;;;1.00;;
13985;SDS011;7067;51.832;8.296;2023-04-23T13:50:29;1.63;;;1.48;;
13985;SDS011;7067;51.832;8.296;2023-04-23T13:52:54;2.30;;;0.70;;
13985;SDS011;7067;51.832;8.296;2023-04-23T13:55:20;1.52;;;0.90;;
13985;SDS011;7067;51.832;8.296;2023-04-23T13:57:45;3.03;;;1.20;;
13985;SDS011;7067;51.832;8.296;2023-04-23T14:00:11;2.70;;;1.30;;
13985;SDS011;7067;51.832;8.296;2023-04-23T14:02:37;6.45;;;1.35;;
13985;SDS011;7067;51.832;8.296;2023-04-23T14:05:03;3.97;;;1.40;;
13985;SDS011;7067;51.832;8.296;2023-04-23T14:07:30;4.75;;;1.20;;
13985;SDS011;7067;51.832;8.296;2023-04-23T14:09:56;3.00;;;1.50;;
13985;SDS011;7067;51.832;8.296;2023-04-23T14:12:21;1.75;;;0.80;;
13985;SDS011;7067;51.832;8.296;2023-04-23T14:14:48;1.88;;;1.00;;
13985;SDS011;7067;51.832;8.296;2023-04-23T14:17:14;3.42;;;1.00;;
13985;SDS011;7067;51.832;8.296;2023-04-23T14:19:39;3.78;;;0.82;;
13985;SDS011;7067;51.832;8.296;2023-04-23T14:22:04;3.47;;;0.88;;
13985;SDS011;7067;51.832;8.296;2023-04-23T14:24:34;2.00;;;1.20;;
13985;SDS011;7067;51.832;8.296;2023-04-23T14:27:03;1.83;;;1.40;;
13985;SDS011;7067;51.832;8.296;2023-04-23T14:29:29;3.58;;;1.33;;
13985;SDS011;7067;51.832;8.296;2023-04-23T14:31:59;2.83;;;1.20;;
13985;SDS011;7067;51.832;8.296;2023-04-23T14:34:25;1.60;;;0.90;;
13985;SDS011;7067;51.832;8.296;2023-04-23T14:36:50;2.92;;;0.85;;
13985;SDS011;7067;51.832;8.296;2023-04-23T14:39:17;1.80;;;0.88;;
13985;SDS011;7067;51.832;8.296;2023-04-23T14:41:42;1.33;;;0.80;;
13985;SDS011;7067;51.832;8.296;2023-04-23T14:44:08;1.33;;;0.82;;
13985;SDS011;7067;51.832;8.296;2023-04-23T14:46:34;1.73;;;0.70;;
13985;SDS011;7067;51.832;8.296;2023-04-23T14:48:59;1.65;;;0.95;;
13985;SDS011;7067;51.832;8.296;2023-04-23T14:51:24;1.17;;;0.90;;
13985;SDS011;7067;51.832;8.296;2023-04-23T14:53:51;2.15;;;0.82;;